Time;durP1;ratioP1;P1;durP2;ratioP2;P2;SDS_P1;SDS_P2;PMS_P1;PMS_P2;Temp;Humidity;BMP_temperature;BMP_pressure;BME280_temperature;BME280_humidity;BME280_pressure;Samples;Min_cycle;Max_cycle;Signal;HPM_P1;HPM_P2
2021/01/10 05:24:17;;;;;;;59.05;26.65;;;0.40;99.90;;;;;;5386085;23;20404;-74
2021/01/10 05:26:43;;;;;;;49.92;26.30;;;0.40;99.90;;;;;;4988768;28;20220;-73
2021/01/10 05:29:11;;;;;;;46.13;25.10;;;0.30;99.90;;;;;;4989465;28;20248;-73
2021/01/10 05:31:45;;;;;;;43.80;25.20;;;0.40;99.90;;;;;;5014115;28;20169;-73
2021/01/10 05:34:15;;;;;;;45.47;26.10;;;0.40;99.90;;;;;;4996681;28;20246;-73
2021/01/10 05:36:42;;;;;;;55.75;30.20;;;0.50;99.90;;;;;;4996259;28;20541;-75
2021/01/10 05:39:21;;;;;;;50.42;27.13;;;0.40;99.90;;;;;;5013769;28;20204;-75
2021/01/10 05:42:04;;;;;;;45.22;28.30;;;0.40;99.90;;;;;;5013727;28;20256;-73
2021/01/10 05:44:45;;;;;;;48.30;28.35;;;0.40;99.90;;;;;;4996398;28;20225;-73
2021/01/10 05:47:13;;;;;;;53.90;29.02;;;0.40;99.90;;;;;;5013918;28;20165;-73
2021/01/10 05:49:50;;;;;;;52.58;27.38;;;0.40;99.90;;;;;;5013850;28;20212;-73
2021/01/10 05:52:16;;;;;;;51.50;26.75;;;0.40;99.90;;;;;;5013413;28;20179;-73
2021/01/10 05:54:47;;;;;;;51.75;28.88;;;0.40;99.90;;;;;;5013698;28;20216;-73
2021/01/10 05:57:25;;;;;;;55.78;27.98;;;0.40;99.90;;;;;;5014011;28;20174;-73
2021/01/10 05:59:53;;;;;;;60.38;28.45;;;0.40;99.90;;;;;;4996059;28;20279;-73
2021/01/10 06:02:28;;;;;;;60.28;29.52;;;0.40;99.90;;;;;;5013603;28;20635;-73
2021/01/10 06:05:13;;;;;;;51.50;27.30;;;0.40;99.90;;;;;;5013400;28;20213;-73
2021/01/10 06:07:40;;;;;;;55.65;28.42;;;0.40;99.90;;;;;;5013440;28;20201;-72
2021/01/10 06:10:08;;;;;;;52.88;28.98;;;0.40;99.90;;;;;;5013281;28;20180;-73
2021/01/10 06:12:34;;;;;;;56.88;28.58;;;0.40;99.90;;;;;;5013529;28;20166;-73
2021/01/10 06:15:17;;;;;;;56.83;29.48;;;0.40;99.90;;;;;;4995740;28;20225;-73
2021/01/10 06:17:48;;;;;;;53.50;28.25;;;0.40;99.90;;;;;;5013337;28;20183;-73
2021/01/10 06:20:24;;;;;;;64.10;31.25;;;0.40;99.90;;;;;;4995729;28;20177;-73
2021/01/10 06:22:53;;;;;;;61.47;30.08;;;0.40;99.90;;;;;;5013165;28;20255;-73
2021/01/10 06:25:22;;;;;;;62.05;31.45;;;0.40;99.90;;;;;;5012880;28;20574;-73
2021/01/10 06:28:02;;;;;;;61.83;29.75;;;0.40;99.90;;;;;;4995561;28;20530;-73
2021/01/10 06:30:31;;;;;;;60.72;30.73;;;0.30;99.90;;;;;;4995283;28;20187;-73
2021/01/10 06:33:11;;;;;;;54.67;30.08;;;0.30;99.90;;;;;;5012934;28;20188;-73
2021/01/10 06:35:40;;;;;;;56.67;30.17;;;0.40;99.90;;;;;;5012741;28;20169;-73
2021/01/10 06:38:08;;;;;;;61.45;31.08;;;0.20;99.90;;;;;;5012395;28;20647;-74
2021/01/10 06:40:39;;;;;;;62.33;32.05;;;0.30;99.90;;;;;;5013304;28;20540;-75
2021/01/10 06:43:06;;;;;;;65.93;31.23;;;0.30;99.90;;;;;;5012773;28;20192;-75
2021/01/10 06:45:38;;;;;;;69.28;34.47;;;0.30;99.90;;;;;;5012599;28;20295;-75
2021/01/10 06:48:05;;;;;;;66.55;33.63;;;0.30;99.90;;;;;;4994986;28;20224;-74
2021/01/10 06:50:32;;;;;;;73.47;35.42;;;0.30;99.90;;;;;;4994865;28;20188;-74
2021/01/10 06:53:07;;;;;;;75.90;36.25;;;0.30;99.90;;;;;;4994386;28;20197;-74
2021/01/10 06:55:34;;;;;;;70.97;37.10;;;0.30;99.90;;;;;;5012489;28;20646;-75
2021/01/10 06:58:09;;;;;;;76.82;35.13;;;0.30;99.90;;;;;;5012411;28;20197;-75
2021/01/10 07:01:01;;;;;;;70.43;35.22;;;0.40;99.90;;;;;;4994815;28;20169;-75
2021/01/10 07:03:27;;;;;;;78.28;35.92;;;0.40;99.90;;;;;;4999722;28;20232;-74
2021/01/10 07:05:56;;;;;;;70.15;34.80;;;0.30;99.90;;;;;;5012270;28;20165;-75
2021/01/10 07:08:31;;;;;;;73.20;35.22;;;0.50;99.90;;;;;;4994300;28;20681;-74
2021/01/10 07:10:56;;;;;;;77.72;37.78;;;0.40;99.90;;;;;;4994647;28;20179;-74
2021/01/10 07:13:27;;;;;;;74.13;34.72;;;0.40;99.90;;;;;;5012233;28;20560;-74
2021/01/10 07:16:26;;;;;;;80.05;38.47;;;0.30;99.90;;;;;;5011895;28;20533;-75
2021/01/10 07:18:57;;;;;;;80.65;37.35;;;0.40;99.90;;;;;;4913483;29;20208;-75
2021/01/10 07:21:36;;;;;;;79.70;37.60;;;0.40;99.90;;;;;;4913398;29;20208;-76
2021/01/10 07:24:16;;;;;;;87.05;48.22;;;0.30;99.90;;;;;;4911680;29;20533;-75
2021/01/10 07:26:50;;;;;;;77.38;38.17;;;0.30;99.90;;;;;;4913288;29;20198;-76
2021/01/10 07:29:29;;;;;;;70.25;36.45;;;0.40;99.90;;;;;;4913426;29;20220;-76
2021/01/10 07:32:18;;;;;;;67.00;32.25;;;0.40;99.90;;;;;;4913409;29;20648;-76
2021/01/10 07:34:44;;;;;;;60.78;31.05;;;0.40;99.90;;;;;;4913616;29;20920;-76
2021/01/10 07:37:30;;;;;;;57.03;29.52;;;0.40;99.90;;;;;;4913588;29;20263;-76
2021/01/10 07:40:03;;;;;;;55.10;28.05;;;0.40;99.90;;;;;;4912939;29;20330;-76
2021/01/10 07:42:39;;;;;;;44.42;23.63;;;0.40;99.90;;;;;;4913400;29;20691;-75
2021/01/10 07:45:20;;;;;;;36.10;22.45;;;0.40;99.90;;;;;;4913361;29;20259;-75
2021/01/10 07:47:52;;;;;;;44.03;24.15;;;0.40;99.90;;;;;;4913254;29;20623;-76
2021/01/10 07:50:23;;;;;;;40.03;23.02;;;0.40;99.90;;;;;;4913525;29;20176;-76
2021/01/10 07:52:51;;;;;;;38.92;22.17;;;0.40;99.90;;;;;;4913203;29;20212;-76
2021/01/10 07:55:19;;;;;;;37.22;22.13;;;0.40;99.90;;;;;;4995822;28;20192;-76
2021/01/10 07:58:00;;;;;;;42.00;22.85;;;0.40;99.90;;;;;;5011667;28;20173;-76
2021/01/10 08:00:27;;;;;;;43.10;23.45;;;0.40;99.90;;;;;;4994398;28;20200;-76
2021/01/10 08:03:03;;;;;;;46.70;25.67;;;0.50;99.90;;;;;;4994011;28;20176;-76
2021/01/10 08:05:37;;;;;;;45.78;25.00;;;0.40;99.90;;;;;;5011914;28;20760;-75
2021/01/10 08:08:12;;;;;;;47.38;24.88;;;0.50;99.90;;;;;;4993571;28;20188;-76
2021/01/10 08:10:49;;;;;;;49.25;26.17;;;0.40;99.90;;;;;;5011925;28;20490;-76
2021/01/10 08:13:34;;;;;;;53.25;28.25;;;0.50;99.90;;;;;;4993884;28;20671;-76
2021/01/10 08:16:07;;;;;;;49.97;27.00;;;0.50;99.90;;;;;;5014839;28;20193;-76
2021/01/10 08:18:40;;;;;;;47.45;27.63;;;0.50;99.90;;;;;;5015137;28;20189;-76
2021/01/10 08:21:11;;;;;;;40.85;22.40;;;0.60;99.90;;;;;;4998061;28;20213;-76
2021/01/10 08:23:38;;;;;;;46.03;24.42;;;0.50;99.90;;;;;;5014562;28;20205;-76
2021/01/10 08:26:07;;;;;;;45.47;24.75;;;0.60;99.90;;;;;;5015228;28;20248;-76
2021/01/10 08:28:38;;;;;;;39.97;23.80;;;0.60;99.90;;;;;;5015262;28;20320;-76
2021/01/10 08:31:15;;;;;;;43.58;25.13;;;0.60;99.90;;;;;;4997847;28;20173;-76
2021/01/10 08:33:41;;;;;;;55.42;27.67;;;0.60;99.90;;;;;;5015099;28;20215;-76
2021/01/10 08:36:26;;;;;;;54.30;27.70;;;0.60;99.90;;;;;;5015201;28;20172;-75
2021/01/10 08:39:09;;;;;;;62.00;30.73;;;0.60;99.90;;;;;;4996813;28;20248;-76
2021/01/10 08:41:37;;;;;;;72.72;32.05;;;0.60;99.90;;;;;;5015226;28;20153;-76
2021/01/10 08:44:13;;;;;;;74.35;33.35;;;0.60;99.90;;;;;;5014775;28;20209;-76
2021/01/10 08:46:42;;;;;;;75.00;36.17;;;0.70;99.90;;;;;;5015074;28;20169;-75
2021/01/10 08:49:08;;;;;;;80.78;37.30;;;0.60;99.90;;;;;;5014826;28;20252;-75
2021/01/10 08:51:42;;;;;;;100.75;46.92;;;0.60;99.90;;;;;;5014979;28;20578;-75
2021/01/10 08:54:21;;;;;;;95.05;44.95;;;0.60;99.90;;;;;;5014288;28;20280;-75
2021/01/10 08:56:55;;;;;;;97.78;42.05;;;0.70;99.90;;;;;;5014986;28;20169;-75
2021/01/10 08:59:21;;;;;;;85.97;40.63;;;0.70;99.90;;;;;;5014655;28;20682;-75
2021/01/10 09:01:48;;;;;;;79.07;37.78;;;0.70;99.90;;;;;;5015056;28;20639;-76
2021/01/10 09:04:15;;;;;;;81.68;40.05;;;0.70;99.90;;;;;;5014485;28;20213;-76
2021/01/10 09:07:01;;;;;;;73.97;35.78;;;0.80;99.90;;;;;;5014656;28;20185;-76
2021/01/10 09:09:50;;;;;;;73.80;34.70;;;0.80;99.90;;;;;;5014117;28;20260;-75
2021/01/10 09:12:25;;;;;;;79.80;37.22;;;0.80;99.90;;;;;;5014849;28;20216;-76
2021/01/10 09:15:24;;;;;;;64.03;33.80;;;0.80;99.90;;;;;;5014333;28;20303;-76
2021/01/10 09:17:56;;;;;;;66.82;32.03;;;0.90;99.90;;;;;;5014476;28;20650;-76
2021/01/10 09:20:26;;;;;;;68.45;31.50;;;0.80;99.90;;;;;;5014752;28;20181;-75
2021/01/10 09:22:52;;;;;;;66.85;32.53;;;0.90;99.90;;;;;;5014235;28;20631;-76
2021/01/10 09:25:19;;;;;;;69.50;33.20;;;0.90;99.90;;;;;;5013508;28;20737;-76
2021/01/10 09:28:04;;;;;;;73.60;34.33;;;0.90;99.90;;;;;;4996619;28;20689;-76
2021/01/10 09:30:29;;;;;;;67.30;32.42;;;0.90;99.90;;;;;;5014217;28;20610;-75
2021/01/10 09:32:56;;;;;;;68.38;34.72;;;1.00;99.90;;;;;;4996614;28;20212;-76
2021/01/10 09:35:21;;;;;;;72.22;35.15;;;1.00;99.90;;;;;;5014107;28;20537;-76
2021/01/10 09:37:47;;;;;;;67.53;35.17;;;1.00;99.90;;;;;;4996443;28;20177;-76
2021/01/10 09:40:13;;;;;;;66.50;33.85;;;1.00;99.90;;;;;;5013745;28;20174;-76
2021/01/10 09:42:47;;;;;;;68.22;34.28;;;1.00;99.90;;;;;;5013847;28;20188;-76
2021/01/10 09:45:15;;;;;;;68.18;34.92;;;1.00;99.90;;;;;;5014085;28;20291;-75
2021/01/10 09:47:42;;;;;;;79.38;36.50;;;1.00;99.90;;;;;;5013740;28;20207;-76
2021/01/10 09:50:15;;;;;;;64.65;33.13;;;1.00;99.90;;;;;;4996079;28;20173;-76
2021/01/10 09:52:47;;;;;;;61.72;32.45;;;1.10;99.90;;;;;;5013664;28;20172;-76
2021/01/10 09:55:12;;;;;;;65.97;32.28;;;1.10;99.90;;;;;;4995741;28;20584;-76
2021/01/10 09:57:39;;;;;;;63.00;33.38;;;1.10;99.90;;;;;;4995912;28;20181;-76
2021/01/10 10:00:08;;;;;;;65.07;31.17;;;1.10;99.90;;;;;;4996068;28;20647;-76
2021/01/10 10:02:37;;;;;;;69.28;34.30;;;1.10;99.90;;;;;;4995725;28;20181;-77
2021/01/10 10:05:12;;;;;;;49.03;24.80;;;1.10;99.90;;;;;;4996016;28;20217;-76
2021/01/10 10:07:42;;;;;;;27.60;16.95;;;1.10;99.90;;;;;;5013254;28;20255;-76
2021/01/10 10:10:11;;;;;;;21.45;14.05;;;1.10;99.90;;;;;;5013518;28;20172;-76
2021/01/10 10:12:37;;;;;;;22.20;14.73;;;1.10;99.90;;;;;;5013257;28;20184;-76
2021/01/10 10:15:07;;;;;;;19.35;13.90;;;1.10;99.90;;;;;;5013416;28;20176;-76
2021/01/10 10:17:38;;;;;;;22.60;13.82;;;0.90;99.90;;;;;;4995439;28;20184;-76
2021/01/10 10:20:09;;;;;;;18.67;13.20;;;1.10;99.90;;;;;;5013353;28;20169;-76
2021/01/10 10:22:36;;;;;;;19.02;13.73;;;1.10;99.90;;;;;;5013107;28;20169;-76
2021/01/10 10:25:05;;;;;;;17.75;12.88;;;1.20;99.90;;;;;;5012865;28;20258;-76
2021/01/10 10:27:32;;;;;;;16.23;13.15;;;1.20;99.90;;;;;;5013024;28;20173;-76
2021/01/10 10:29:58;;;;;;;19.92;13.90;;;1.20;99.90;;;;;;4995561;28;20204;-76
2021/01/10 10:32:24;;;;;;;17.50;13.48;;;1.20;99.90;;;;;;5013103;28;20703;-76
2021/01/10 10:34:51;;;;;;;19.35;13.38;;;1.30;99.90;;;;;;5012890;28;20315;-76
2021/01/10 10:37:17;;;;;;;18.33;13.82;;;1.30;99.90;;;;;;4994666;28;20241;-76
2021/01/10 10:39:44;;;;;;;16.60;12.63;;;1.40;99.90;;;;;;5012470;28;20198;-76
2021/01/10 10:42:13;;;;;;;19.48;14.27;;;1.30;99.90;;;;;;4995341;28;20173;-76
2021/01/10 10:44:39;;;;;;;17.00;13.00;;;1.30;99.90;;;;;;5012468;28;20209;-77
2021/01/10 10:47:05;;;;;;;18.67;14.32;;;1.40;99.90;;;;;;5012937;28;20225;-76
2021/01/10 10:49:31;;;;;;;19.95;15.18;;;1.40;99.90;;;;;;5012618;28;20192;-76
2021/01/10 10:51:58;;;;;;;17.42;13.25;;;1.40;99.90;;;;;;4995232;28;20524;-76
2021/01/10 10:54:23;;;;;;;19.58;14.07;;;1.50;99.90;;;;;;5012336;28;20264;-76
2021/01/10 10:56:50;;;;;;;19.75;13.80;;;1.60;99.90;;;;;;5012775;28;20173;-76
2021/01/10 10:59:16;;;;;;;22.40;15.23;;;1.50;99.90;;;;;;5012321;28;20189;-77
2021/01/10 11:01:42;;;;;;;17.52;13.88;;;1.50;99.90;;;;;;5012778;28;20196;-76
2021/01/10 11:04:08;;;;;;;16.95;13.25;;;1.60;99.90;;;;;;5012331;28;20468;-76
2021/01/10 11:06:35;;;;;;;20.77;15.80;;;1.60;99.90;;;;;;5012679;28;20165;-76
2021/01/10 11:09:02;;;;;;;20.85;15.50;;;1.60;99.90;;;;;;5012042;28;20655;-76
2021/01/10 11:11:45;;;;;;;20.75;15.63;;;1.70;99.90;;;;;;4994861;28;20177;-76
2021/01/10 11:14:15;;;;;;;23.27;16.17;;;1.70;99.90;;;;;;5012552;28;20452;-76
2021/01/10 11:16:46;;;;;;;23.25;17.20;;;1.70;99.90;;;;;;5012435;28;20197;-76
2021/01/10 11:19:13;;;;;;;22.60;16.58;;;1.70;99.90;;;;;;4995053;28;20207;-76
2021/01/10 11:21:47;;;;;;;21.33;15.38;;;1.70;99.90;;;;;;5012420;28;20169;-76
2021/01/10 11:24:13;;;;;;;24.35;17.50;;;1.80;99.90;;;;;;5011790;28;20236;-76
2021/01/10 11:26:44;;;;;;;29.33;18.83;;;1.80;99.90;;;;;;5012187;28;20189;-76
2021/01/10 11:29:10;;;;;;;32.05;21.08;;;1.80;99.90;;;;;;5012247;28;20201;-76
2021/01/10 11:31:37;;;;;;;33.10;19.85;;;1.80;99.90;;;;;;5012231;28;20166;-76
2021/01/10 11:34:05;;;;;;;27.42;17.30;;;1.80;99.90;;;;;;5012248;28;20207;-77
2021/01/10 11:36:31;;;;;;;23.67;16.40;;;1.90;99.90;;;;;;5011973;28;20185;-76
2021/01/10 11:38:57;;;;;;;24.23;16.83;;;1.90;99.90;;;;;;5011890;28;20259;-76
2021/01/10 11:41:23;;;;;;;22.77;15.93;;;2.00;99.90;;;;;;4994365;28;20643;-76
2021/01/10 11:43:53;;;;;;;25.52;17.95;;;2.10;99.90;;;;;;5011930;28;20205;-76
2021/01/10 11:46:20;;;;;;;25.33;18.13;;;2.10;99.90;;;;;;4994338;28;20180;-76
2021/01/10 11:48:46;;;;;;;26.30;18.15;;;2.10;99.90;;;;;;4995499;28;20299;-76
2021/01/10 11:51:14;;;;;;;30.98;19.65;;;2.20;99.90;;;;;;5015977;28;20247;-76
2021/01/10 11:53:40;;;;;;;33.35;22.48;;;2.20;99.90;;;;;;5015604;28;20197;-76
2021/01/10 11:56:06;;;;;;;29.42;21.75;;;2.20;99.90;;;;;;4998099;28;20642;-76
2021/01/10 11:58:33;;;;;;;31.35;21.88;;;2.20;99.90;;;;;;5015829;28;20280;-76
2021/01/10 12:01:00;;;;;;;28.20;17.38;;;2.20;99.90;;;;;;5015836;28;20169;-76
2021/01/10 12:03:27;;;;;;;29.13;19.15;;;2.20;99.90;;;;;;4998098;28;20268;-76
2021/01/10 12:05:53;;;;;;;24.27;16.90;;;2.20;99.90;;;;;;5015942;28;20177;-76
2021/01/10 12:08:21;;;;;;;22.23;16.85;;;2.30;99.90;;;;;;4997534;28;20197;-76
2021/01/10 12:10:47;;;;;;;26.15;17.00;;;2.30;99.90;;;;;;5015690;28;20183;-77
2021/01/10 12:13:14;;;;;;;22.13;15.50;;;2.30;99.90;;;;;;5015470;28;20272;-77
2021/01/10 12:15:41;;;;;;;19.70;14.43;;;2.40;99.90;;;;;;5015649;28;20177;-76
2021/01/10 12:18:07;;;;;;;20.52;14.35;;;2.40;99.90;;;;;;4997895;28;20571;-76
2021/01/10 12:20:34;;;;;;;15.50;12.30;;;2.40;99.90;;;;;;4997997;28;20257;-76
2021/01/10 12:23:00;;;;;;;17.02;13.00;;;2.50;99.90;;;;;;4997152;28;20200;-76
2021/01/10 12:25:26;;;;;;;21.77;13.82;;;2.40;99.90;;;;;;5015530;28;20308;-76
2021/01/10 12:27:53;;;;;;;17.48;13.70;;;2.40;99.90;;;;;;4997582;28;20263;-76
2021/01/10 12:30:20;;;;;;;17.95;13.35;;;2.50;99.90;;;;;;5015451;28;20176;-76
2021/01/10 12:32:46;;;;;;;17.25;13.82;;;2.40;99.90;;;;;;4997587;28;20226;-76
2021/01/10 12:35:15;;;;;;;17.55;14.02;;;2.40;99.90;;;;;;5015339;28;20181;-76
2021/01/10 12:37:41;;;;;;;18.10;14.07;;;2.40;99.90;;;;;;5014814;28;20822;-76
2021/01/10 12:40:09;;;;;;;17.58;13.20;;;2.40;99.90;;;;;;5015322;28;20249;-76
2021/01/10 12:42:34;;;;;;;16.58;13.43;;;2.30;99.90;;;;;;5014930;28;20193;-76
2021/01/10 12:45:01;;;;;;;17.65;13.15;;;2.40;99.90;;;;;;5015034;28;20252;-76
2021/01/10 12:47:27;;;;;;;14.95;12.35;;;2.40;99.90;;;;;;5015097;28;20169;-76
2021/01/10 12:49:53;;;;;;;16.38;11.70;;;2.40;99.90;;;;;;5014893;28;20553;-76
2021/01/10 12:52:18;;;;;;;15.90;13.07;;;2.40;99.90;;;;;;4997675;28;20289;-76
2021/01/10 12:54:45;;;;;;;13.02;11.13;;;2.40;99.90;;;;;;4996752;28;20200;-76
2021/01/10 12:57:10;;;;;;;15.48;11.57;;;2.40;99.90;;;;;;5015123;28;20180;-76
2021/01/10 12:59:36;;;;;;;13.25;10.98;;;2.40;99.90;;;;;;4996863;28;20287;-76
2021/01/10 13:02:05;;;;;;;16.30;12.50;;;2.40;99.90;;;;;;4996612;28;20264;-76
2021/01/10 13:04:32;;;;;;;15.45;12.07;;;2.40;99.90;;;;;;4996788;28;20272;-77
2021/01/10 13:06:59;;;;;;;16.15;12.85;;;2.40;99.90;;;;;;5014803;28;20264;-75
2021/01/10 13:09:26;;;;;;;22.90;15.68;;;2.40;99.90;;;;;;5014106;28;20199;-77
2021/01/10 13:11:57;;;;;;;30.17;18.67;;;2.40;99.90;;;;;;5014535;28;20260;-76
2021/01/10 13:14:23;;;;;;;22.58;16.50;;;2.50;99.90;;;;;;5014492;28;20189;-76
2021/01/10 13:16:49;;;;;;;24.98;16.77;;;2.50;99.90;;;;;;5014516;28;20181;-76
2021/01/10 13:19:15;;;;;;;28.63;17.38;;;2.50;99.90;;;;;;5014174;28;20251;-77
2021/01/10 13:21:41;;;;;;;26.05;17.52;;;2.40;99.90;;;;;;5014409;28;20724;-76
2021/01/10 13:24:07;;;;;;;25.60;17.08;;;2.40;99.90;;;;;;5013724;28;20307;-76
2021/01/10 13:26:33;;;;;;;23.00;17.00;;;2.40;99.90;;;;;;5014319;28;20170;-77
2021/01/10 13:28:59;;;;;;;21.65;15.30;;;2.40;99.90;;;;;;5014430;28;20240;-76
2021/01/10 13:31:25;;;;;;;21.45;15.90;;;2.40;99.90;;;;;;5014093;28;20600;-76
2021/01/10 13:33:50;;;;;;;20.67;14.52;;;2.40;99.90;;;;;;5014110;28;20691;-76
2021/01/10 13:36:22;;;;;;;18.50;13.45;;;2.40;99.90;;;;;;5014064;28;20643;-76
2021/01/10 13:38:51;;;;;;;18.65;13.20;;;2.40;99.90;;;;;;5013653;28;20189;-77
2021/01/10 13:41:17;;;;;;;17.75;12.85;;;2.40;99.90;;;;;;5013885;28;20566;-76
2021/01/10 13:43:43;;;;;;;15.57;12.32;;;2.50;99.90;;;;;;4996215;28;20220;-76
2021/01/10 13:46:13;;;;;;;18.60;13.63;;;2.40;99.90;;;;;;4995955;28;20245;-76
2021/01/10 13:48:39;;;;;;;18.08;13.55;;;2.40;99.90;;;;;;5013823;28;20192;-76
2021/01/10 13:51:08;;;;;;;18.83;14.38;;;2.40;99.90;;;;;;4996181;28;20176;-76
2021/01/10 13:53:36;;;;;;;22.40;16.15;;;2.40;99.90;;;;;;4995633;28;20224;-77
2021/01/10 13:56:02;;;;;;;25.63;17.27;;;2.40;99.90;;;;;;5013654;28;20639;-76
2021/01/10 13:58:29;;;;;;;26.05;17.40;;;2.40;99.90;;;;;;5013672;28;20280;-76
2021/01/10 14:00:54;;;;;;;28.27;17.58;;;2.30;99.90;;;;;;5013576;28;20165;-76
2021/01/10 14:03:20;;;;;;;25.25;17.88;;;2.20;99.90;;;;;;5013601;28;20244;-76
2021/01/10 14:05:46;;;;;;;27.13;16.55;;;2.20;99.90;;;;;;4995981;28;20188;-76
2021/01/10 14:08:11;;;;;;;23.10;17.92;;;2.10;99.90;;;;;;5013164;28;20564;-76
2021/01/10 14:10:37;;;;;;;25.15;16.92;;;2.10;99.90;;;;;;4995771;28;20176;-76
2021/01/10 14:13:03;;;;;;;22.92;17.02;;;2.00;99.90;;;;;;5013350;28;20200;-77
2021/01/10 14:15:28;;;;;;;25.30;17.98;;;2.00;99.90;;;;;;5013376;28;20169;-77
2021/01/10 14:17:54;;;;;;;24.70;16.85;;;2.10;99.90;;;;;;5013276;28;20173;-76
2021/01/10 14:20:20;;;;;;;22.35;15.70;;;2.10;99.90;;;;;;5013449;28;20184;-76
2021/01/10 14:22:45;;;;;;;26.88;18.63;;;2.00;99.90;;;;;;5013165;28;20228;-77
2021/01/10 14:25:11;;;;;;;24.25;17.45;;;2.00;99.90;;;;;;5012832;28;20651;-76
2021/01/10 14:27:39;;;;;;;28.65;18.42;;;2.00;99.90;;;;;;5012980;28;20683;-76
2021/01/10 14:30:06;;;;;;;29.38;20.17;;;1.90;99.90;;;;;;4995597;28;20648;-77
2021/01/10 14:32:31;;;;;;;27.83;19.25;;;1.80;99.90;;;;;;5013046;28;20176;-76
2021/01/10 14:34:57;;;;;;;28.25;18.30;;;1.80;99.90;;;;;;5013403;28;20199;-76
2021/01/10 14:37:23;;;;;;;24.80;16.60;;;1.70;99.90;;;;;;5013013;28;20608;-75
2021/01/10 14:39:49;;;;;;;26.83;17.63;;;1.70;99.90;;;;;;5012558;28;20190;-76
2021/01/10 14:42:14;;;;;;;32.38;19.52;;;1.70;99.90;;;;;;4995110;28;20737;-76
2021/01/10 14:44:40;;;;;;;30.73;20.63;;;1.60;99.90;;;;;;4995243;28;20221;-75
2021/01/10 14:47:06;;;;;;;33.72;23.08;;;1.60;99.90;;;;;;5012923;28;20219;-75
2021/01/10 14:49:32;;;;;;;36.28;22.77;;;1.50;99.90;;;;;;4995116;28;20229;-75
2021/01/10 14:51:57;;;;;;;39.13;24.67;;;1.60;99.90;;;;;;5012900;28;20165;-75
2021/01/10 14:54:23;;;;;;;34.58;23.55;;;1.50;99.90;;;;;;4994569;28;20205;-76
2021/01/10 14:56:49;;;;;;;32.53;22.13;;;1.50;99.90;;;;;;5012658;28;20177;-76
2021/01/10 14:59:15;;;;;;;31.13;21.30;;;1.40;99.90;;;;;;5012580;28;20185;-75
2021/01/10 15:01:41;;;;;;;30.77;20.98;;;1.40;99.90;;;;;;5012632;28;20248;-76
2021/01/10 15:04:07;;;;;;;34.63;22.50;;;1.40;99.90;;;;;;4994667;28;20271;-75
2021/01/10 15:06:37;;;;;;;34.55;21.63;;;1.40;99.90;;;;;;4994935;28;20177;-76
2021/01/10 15:09:07;;;;;;;35.00;22.88;;;1.30;99.90;;;;;;4994528;28;20208;-75
2021/01/10 15:11:33;;;;;;;38.17;24.00;;;1.30;99.90;;;;;;5012422;28;20169;-75
2021/01/10 15:14:00;;;;;;;39.65;25.15;;;1.20;99.90;;;;;;5012432;28;20323;-75
2021/01/10 15:16:26;;;;;;;39.85;26.90;;;1.40;99.90;;;;;;5012478;28;20180;-75
2021/01/10 15:18:53;;;;;;;40.67;26.33;;;1.30;99.90;;;;;;5012287;28;20295;-77
2021/01/10 15:21:20;;;;;;;37.60;23.23;;;1.30;99.90;;;;;;4994941;28;20220;-75
2021/01/10 15:23:47;;;;;;;37.40;22.52;;;1.30;99.90;;;;;;5011079;28;20232;-74
2021/01/10 15:26:12;;;;;;;39.03;23.17;;;1.30;99.90;;;;;;4994644;28;20256;-78
2021/01/10 15:28:39;;;;;;;36.13;22.60;;;1.30;99.90;;;;;;5012308;28;20735;-74
2021/01/10 15:31:05;;;;;;;36.92;23.95;;;1.30;99.90;;;;;;4994615;28;20632;-77
2021/01/10 15:33:31;;;;;;;37.88;23.75;;;1.20;99.90;;;;;;4994616;28;20247;-77
2021/01/10 15:35:58;;;;;;;32.40;23.23;;;1.20;99.90;;;;;;5012629;28;20165;-77
2021/01/10 15:38:24;;;;;;;42.78;24.25;;;1.20;99.90;;;;;;5011992;28;20280;-75
2021/01/10 15:40:50;;;;;;;39.13;24.42;;;1.20;99.90;;;;;;5012016;28;20240;-75
2021/01/10 15:43:16;;;;;;;42.97;26.58;;;1.30;99.90;;;;;;4994347;28;20219;-76
2021/01/10 15:45:42;;;;;;;44.00;25.88;;;1.20;99.90;;;;;;4994475;28;20179;-76
2021/01/10 15:48:08;;;;;;;39.83;24.83;;;1.20;99.90;;;;;;5012182;28;20185;-75
2021/01/10 15:50:34;;;;;;;35.17;24.02;;;1.20;99.90;;;;;;4994285;28;20169;-76
2021/01/10 15:52:59;;;;;;;43.88;25.70;;;1.20;99.90;;;;;;4993958;28;20197;-75
2021/01/10 15:55:25;;;;;;;48.42;30.33;;;1.20;99.90;;;;;;5012037;28;20169;-76
2021/01/10 15:57:52;;;;;;;49.00;29.80;;;1.30;99.90;;;;;;4994341;28;20184;-75
2021/01/10 16:00:18;;;;;;;43.88;27.08;;;1.20;99.90;;;;;;5011918;28;20640;-76
2021/01/10 16:02:44;;;;;;;42.15;29.45;;;1.20;99.90;;;;;;5012030;28;20213;-74
2021/01/10 16:05:11;;;;;;;45.28;28.88;;;1.20;99.90;;;;;;5011986;28;20270;-74
2021/01/10 16:07:37;;;;;;;43.60;28.30;;;1.20;99.90;;;;;;5011694;28;20173;-74
2021/01/10 16:10:04;;;;;;;44.15;28.40;;;1.10;99.90;;;;;;5011530;28;20192;-74
2021/01/10 16:12:31;;;;;;;40.95;27.73;;;1.10;99.90;;;;;;5011776;28;20252;-73
2021/01/10 16:14:57;;;;;;;39.75;26.27;;;1.10;99.90;;;;;;5011928;28;20189;-74
2021/01/10 16:17:26;;;;;;;35.88;24.33;;;1.00;99.90;;;;;;5011893;28;20197;-74
2021/01/10 16:19:55;;;;;;;45.63;26.50;;;1.00;99.90;;;;;;5011838;28;20529;-75
2021/01/10 16:22:21;;;;;;;46.60;26.73;;;1.00;99.90;;;;;;5011545;28;20170;-75
2021/01/10 16:24:47;;;;;;;42.67;27.65;;;1.00;99.90;;;;;;5001851;28;20739;-74
2021/01/10 16:27:19;;;;;;;41.67;26.25;;;0.90;99.90;;;;;;4974722;28;20264;-74
2021/01/10 16:29:49;;;;;;;44.03;27.35;;;0.90;99.90;;;;;;4974550;28;20198;-74
2021/01/10 16:32:15;;;;;;;47.40;28.52;;;0.80;99.90;;;;;;4974347;28;20174;-74
2021/01/10 16:34:43;;;;;;;45.10;29.13;;;0.80;99.90;;;;;;4992175;28;20289;-74
2021/01/10 16:37:09;;;;;;;47.00;28.25;;;0.80;99.90;;;;;;4994744;28;20185;-74
2021/01/10 16:39:35;;;;;;;46.60;30.65;;;0.80;99.90;;;;;;4995285;28;20679;-74
2021/01/10 16:42:01;;;;;;;53.40;32.30;;;0.70;99.90;;;;;;4978080;28;20188;-74
2021/01/10 16:44:27;;;;;;;48.45;30.95;;;0.70;99.90;;;;;;4978116;28;20253;-74
2021/01/10 16:46:53;;;;;;;47.65;29.80;;;0.60;99.90;;;;;;4995476;28;20201;-73
2021/01/10 16:49:19;;;;;;;40.40;25.35;;;0.60;99.90;;;;;;4995431;28;20201;-74
2021/01/10 16:51:46;;;;;;;45.30;28.92;;;0.60;99.90;;;;;;4977907;28;20170;-75
2021/01/10 16:54:18;;;;;;;45.45;27.35;;;0.50;99.90;;;;;;4977650;28;20197;-73
2021/01/10 16:56:45;;;;;;;46.90;28.65;;;0.50;99.90;;;;;;4977860;28;20228;-73
2021/01/10 16:59:11;;;;;;;43.72;27.73;;;0.50;99.90;;;;;;4995302;28;20734;-74
2021/01/10 17:01:45;;;;;;;41.78;26.88;;;0.50;99.90;;;;;;4995300;28;20181;-75
2021/01/10 17:04:12;;;;;;;43.22;27.70;;;0.40;99.90;;;;;;4994826;28;20707;-75
2021/01/10 17:06:38;;;;;;;44.88;28.80;;;0.40;99.90;;;;;;4995164;28;20166;-73
2021/01/10 17:09:05;;;;;;;46.28;28.60;;;0.60;99.90;;;;;;4994713;28;20703;-76
2021/01/10 17:11:43;;;;;;;44.47;27.92;;;0.30;99.90;;;;;;4995304;28;20178;-73
2021/01/10 17:14:10;;;;;;;54.83;31.42;;;0.40;99.90;;;;;;4994812;28;20193;-75
2021/01/10 17:16:37;;;;;;;53.03;32.67;;;0.30;99.90;;;;;;4995042;28;20246;-73
2021/01/10 17:19:04;;;;;;;49.75;30.52;;;0.40;99.90;;;;;;4994734;28;20712;-76
2021/01/10 17:21:30;;;;;;;49.95;31.08;;;0.30;99.90;;;;;;4977419;28;20185;-73
2021/01/10 17:23:57;;;;;;;50.05;30.10;;;0.20;99.90;;;;;;4979287;28;20229;-76
2021/01/10 17:26:32;;;;;;;51.28;31.30;;;0.30;99.90;;;;;;4996912;28;20173;-76
2021/01/10 17:28:59;;;;;;;47.75;29.77;;;0.30;99.90;;;;;;5014251;28;20640;-75
2021/01/10 17:31:24;;;;;;;47.97;30.42;;;0.20;99.90;;;;;;5013997;28;20243;-75
2021/01/10 17:33:50;;;;;;;52.88;32.05;;;0.30;99.90;;;;;;5013910;28;20229;-75
2021/01/10 17:36:27;;;;;;;57.20;35.15;;;0.30;99.90;;;;;;4996083;28;20674;-76
2021/01/10 17:38:54;;;;;;;59.00;34.53;;;0.20;99.90;;;;;;5013539;28;20274;-75
2021/01/10 17:41:20;;;;;;;54.13;33.45;;;0.20;99.90;;;;;;5013966;28;20173;-75
2021/01/10 17:43:47;;;;;;;50.53;31.08;;;0.10;99.90;;;;;;5013541;28;20217;-76
2021/01/10 17:46:20;;;;;;;51.15;31.20;;;0.00;99.90;;;;;;4995780;28;20549;-76
2021/01/10 17:48:48;;;;;;;50.42;31.50;;;0.20;99.90;;;;;;5013903;28;20189;-75
2021/01/10 17:51:14;;;;;;;54.22;31.60;;;0.00;99.90;;;;;;4996018;28;20176;-75
2021/01/10 17:53:40;;;;;;;54.00;32.22;;;0.10;99.90;;;;;;5013251;28;20272;-75
2021/01/10 17:56:06;;;;;;;45.63;28.90;;;0.00;99.90;;;;;;4996008;28;20181;-75
2021/01/10 17:58:33;;;;;;;47.78;30.60;;;-0.30;99.90;;;;;;5013476;28;20185;-75
2021/01/10 18:00:59;;;;;;;47.17;29.95;;;0.00;99.90;;;;;;5013378;28;20176;-75
2021/01/10 18:03:24;;;;;;;47.05;29.63;;;-0.40;99.90;;;;;;5013447;28;20193;-75
2021/01/10 18:05:50;;;;;;;45.88;30.05;;;-0.10;99.90;;;;;;5013414;28;20173;-75
2021/01/10 18:08:16;;;;;;;43.95;27.98;;;-0.30;99.90;;;;;;4995252;28;20201;-75